createdAt,value
2016-12-20T00:02:21.924Z,1020.39
2016-12-20T00:07:18.427Z,1020.29
2016-12-20T00:12:15.481Z,1020.45
2016-12-20T00:17:11.826Z,1020.49
2016-12-20T00:22:08.138Z,1020.44
2016-12-20T00:27:04.367Z,1020.46
2016-12-20T00:32:00.682Z,1020.51
2016-12-20T00:36:57.246Z,1020.54
2016-12-20T00:41:53.570Z,1020.34
2016-12-20T00:46:49.925Z,1020.50
2016-12-20T00:51:46.173Z,1020.47
2016-12-20T00:56:42.516Z,1020.35
2016-12-20T01:01:38.897Z,1020.33
2016-12-20T01:06:35.362Z,1020.20
2016-12-20T01:11:32.435Z,1020.19
2016-12-20T01:16:29.711Z,1020.12
2016-12-20T01:21:26.062Z,1020.26
2016-12-20T01:26:22.432Z,1020.36
2016-12-20T01:31:18.796Z,1020.40
2016-12-20T01:36:15.241Z,1020.34
2016-12-20T01:41:11.628Z,1020.40
2016-12-20T01:46:08.696Z,1020.38
2016-12-20T01:51:05.702Z,1020.27
2016-12-20T01:56:02.021Z,1020.22
2016-12-20T02:00:58.333Z,1020.11
2016-12-20T02:05:55.309Z,1020.16
2016-12-20T02:10:51.565Z,1020.25
2016-12-20T02:15:47.818Z,1020.37
2016-12-20T02:20:44.180Z,1020.23
2016-12-20T02:25:41.272Z,1020.27
2016-12-20T02:30:37.569Z,1020.14
2016-12-20T02:35:34.371Z,1020.03
2016-12-20T02:40:31.498Z,1019.90
2016-12-20T02:45:28.492Z,1019.89
2016-12-20T02:50:26.229Z,1019.91
2016-12-20T02:55:22.162Z,1019.77
2016-12-20T03:00:18.211Z,1019.72
2016-12-20T03:05:14.491Z,1019.83
2016-12-20T03:10:10.786Z,1019.79
2016-12-20T03:15:08.363Z,1019.66
2016-12-20T03:20:04.341Z,1019.70
2016-12-20T03:25:00.768Z,1019.59
2016-12-20T03:29:57.132Z,1019.67
2016-12-20T03:34:53.513Z,1019.61
2016-12-20T03:39:49.918Z,1019.56
2016-12-20T03:44:47.393Z,1019.72
2016-12-20T03:49:43.441Z,1019.62
2016-12-20T03:54:39.863Z,1019.52
2016-12-20T03:59:36.148Z,1019.49
2016-12-20T04:04:32.401Z,1019.58
2016-12-20T04:09:28.791Z,1019.52
2016-12-20T04:14:25.149Z,1019.38
2016-12-20T04:19:22.231Z,1019.30
2016-12-20T04:24:18.748Z,1019.26
2016-12-20T04:29:15.075Z,1019.30
2016-12-20T04:34:11.272Z,1019.27
2016-12-20T04:39:07.904Z,1019.23
2016-12-20T04:44:04.976Z,1019.14
2016-12-20T04:49:01.339Z,1019.11
2016-12-20T04:53:57.546Z,1019.08
2016-12-20T04:58:54.241Z,1019.06
2016-12-20T05:03:50.412Z,1019.01
2016-12-20T05:08:46.862Z,1018.89
2016-12-20T05:13:43.254Z,1018.91
2016-12-20T05:18:39.639Z,1018.92
2016-12-20T05:23:35.574Z,1018.93
2016-12-20T05:28:31.940Z,1018.94
2016-12-20T05:33:28.968Z,1019.04
2016-12-20T05:38:26.065Z,1019.11
2016-12-20T05:43:22.381Z,1019.16
2016-12-20T05:48:18.462Z,1019.03
2016-12-20T05:53:14.655Z,1018.90
2016-12-20T05:58:11.350Z,1018.87
2016-12-20T06:03:07.670Z,1018.65
2016-12-20T06:08:03.978Z,1018.74
2016-12-20T06:13:00.135Z,1018.80
2016-12-20T06:17:56.470Z,1018.81
2016-12-20T06:22:52.735Z,1018.83
2016-12-20T06:27:49.066Z,1018.80
2016-12-20T06:32:45.344Z,1018.63
2016-12-20T06:37:42.373Z,1018.57
2016-12-20T06:42:38.559Z,1018.58
2016-12-20T06:47:34.781Z,1018.57
2016-12-20T06:52:31.281Z,1018.70
2016-12-20T06:57:27.569Z,1018.63
2016-12-20T07:02:24.090Z,1018.54
2016-12-20T07:07:20.410Z,1018.56
2016-12-20T07:12:16.686Z,1018.46
2016-12-20T07:17:13.116Z,1018.52
2016-12-20T07:22:09.420Z,1018.42
2016-12-20T07:27:05.797Z,1018.49
2016-12-20T07:32:02.318Z,1018.54
2016-12-20T07:36:58.746Z,1018.51
2016-12-20T07:41:55.291Z,1018.44
2016-12-20T07:46:52.486Z,1018.36
2016-12-20T07:51:49.830Z,1018.29
2016-12-20T07:56:46.115Z,1018.34
2016-12-20T08:01:42.572Z,1018.52
2016-12-20T08:06:38.824Z,1018.48
2016-12-20T08:11:35.147Z,1018.36
2016-12-20T08:16:31.563Z,1018.32
2016-12-20T08:21:28.043Z,1018.31
2016-12-20T08:26:24.611Z,1018.31
2016-12-20T08:31:21.011Z,1018.35
2016-12-20T08:36:17.526Z,1018.21
2016-12-20T08:41:13.986Z,1018.38
2016-12-20T08:46:10.504Z,1018.34
2016-12-20T08:51:07.122Z,1018.43
2016-12-20T08:56:03.624Z,1018.33
2016-12-20T09:01:00.325Z,1018.36
2016-12-20T09:05:56.989Z,1018.24
2016-12-20T09:10:53.062Z,1018.30
2016-12-20T09:15:49.634Z,1018.27
2016-12-20T09:20:46.401Z,1018.28
2016-12-20T09:25:42.882Z,1018.20
2016-12-20T09:30:39.284Z,1018.17
2016-12-20T09:35:36.500Z,1018.06
2016-12-20T09:40:33.736Z,1018.17
2016-12-20T09:45:30.969Z,1018.29
2016-12-20T09:50:27.147Z,1018.16
2016-12-20T09:55:24.303Z,1018.27
2016-12-20T10:00:20.901Z,1018.14
2016-12-20T10:05:17.325Z,1017.96
2016-12-20T10:10:14.408Z,1017.87
2016-12-20T10:15:11.666Z,1017.78
2016-12-20T10:20:08.786Z,1017.72
2016-12-20T10:25:05.202Z,1017.68
2016-12-20T10:30:01.448Z,1017.59
2016-12-20T10:34:57.817Z,1017.49
2016-12-20T10:39:54.391Z,1017.43
2016-12-20T10:44:50.876Z,1017.44
2016-12-20T10:49:47.275Z,1017.31
2016-12-20T10:54:43.913Z,1017.26
2016-12-20T10:59:40.361Z,1017.33
2016-12-20T11:04:37.263Z,1017.31
2016-12-20T11:09:34.008Z,1017.26
2016-12-20T11:14:30.837Z,1017.17
2016-12-20T11:19:28.171Z,1017.04
2016-12-20T11:24:24.877Z,1017.04
2016-12-20T11:29:22.728Z,1016.95
2016-12-20T11:34:19.644Z,1016.99
2016-12-20T11:39:15.931Z,1016.89
2016-12-20T11:44:12.435Z,1016.86
2016-12-20T11:49:08.704Z,1016.80
2016-12-20T11:54:05.129Z,1016.71
2016-12-20T11:59:01.117Z,1016.55
2016-12-20T12:03:57.308Z,1016.50
2016-12-20T12:08:53.441Z,1016.37
2016-12-20T12:13:50.164Z,1016.33
2016-12-20T12:18:46.717Z,1016.22
2016-12-20T12:23:43.084Z,1016.32
2016-12-20T12:28:39.678Z,1016.16
2016-12-20T12:33:36.411Z,1016.09
2016-12-20T12:38:33.038Z,1016.00
2016-12-20T12:43:30.739Z,1015.98
2016-12-20T12:48:26.722Z,1015.96
2016-12-20T12:53:23.196Z,1015.86
2016-12-20T12:58:19.833Z,1015.76
2016-12-20T13:03:16.508Z,1015.64
2016-12-20T13:08:12.851Z,1015.66
2016-12-20T13:13:09.559Z,1015.66
2016-12-20T13:18:05.701Z,1015.75
2016-12-20T13:23:02.597Z,1015.74
2016-12-20T13:27:58.944Z,1015.82
2016-12-20T13:32:55.250Z,1015.72
2016-12-20T13:37:51.951Z,1015.78
2016-12-20T13:42:48.523Z,1015.70
2016-12-20T13:47:44.912Z,1015.81
2016-12-20T13:52:41.226Z,1015.95
2016-12-20T13:57:37.767Z,1016.06
2016-12-20T14:02:34.163Z,1016.07
2016-12-20T14:07:31.975Z,1015.99
2016-12-20T14:12:29.248Z,1015.95
2016-12-20T14:17:25.766Z,1015.91
2016-12-20T14:22:21.989Z,1015.81
2016-12-20T14:27:19.323Z,1015.73
2016-12-20T14:32:15.260Z,1015.82
2016-12-20T14:37:11.692Z,1015.79
2016-12-20T14:42:08.187Z,1015.76
2016-12-20T14:47:04.860Z,1015.80
2016-12-20T14:52:00.984Z,1015.76
2016-12-20T14:56:57.565Z,1015.88
2016-12-20T15:01:54.050Z,1015.88
2016-12-20T15:06:50.395Z,1015.83
2016-12-20T15:11:46.709Z,1015.70
2016-12-20T15:16:43.065Z,1015.56
2016-12-20T15:21:39.350Z,1015.59
2016-12-20T15:26:35.327Z,1015.56
2016-12-20T15:31:31.550Z,1015.49
2016-12-20T15:36:28.722Z,1015.42
2016-12-20T15:41:25.881Z,1015.41
2016-12-20T15:46:23.130Z,1015.37
2016-12-20T15:51:21.798Z,1015.41
2016-12-20T15:56:17.572Z,1015.44
2016-12-20T16:01:13.773Z,1015.48
2016-12-20T16:06:09.851Z,1015.46
2016-12-20T16:11:06.072Z,1015.72
2016-12-20T16:16:04.667Z,1015.71
2016-12-20T16:21:00.485Z,1015.88
2016-12-20T16:25:56.777Z,1015.90
2016-12-20T16:30:53.022Z,1015.78
2016-12-20T16:35:49.333Z,1015.78
2016-12-20T16:40:47.010Z,1015.77
2016-12-20T16:45:43.530Z,1015.81
2016-12-20T16:50:40.340Z,1015.93
2016-12-20T16:55:36.780Z,1015.82
2016-12-20T17:00:33.191Z,1015.80
2016-12-20T17:05:29.637Z,1015.86
2016-12-20T17:10:25.928Z,1015.96
2016-12-20T17:15:22.368Z,1015.81
2016-12-20T17:20:18.736Z,1015.68
2016-12-20T17:25:15.112Z,1015.64
2016-12-20T17:30:11.618Z,1015.76
2016-12-20T17:35:08.127Z,1015.78
2016-12-20T17:40:04.428Z,1015.79
2016-12-20T17:45:00.859Z,1015.81
2016-12-20T17:49:58.281Z,1015.75
2016-12-20T17:54:54.445Z,1015.61
2016-12-20T17:59:50.679Z,1015.71
2016-12-20T18:04:46.885Z,1015.62
2016-12-20T18:09:43.484Z,1015.69
2016-12-20T18:14:39.898Z,1015.70
2016-12-20T18:19:36.192Z,1015.69
2016-12-20T18:24:32.561Z,1015.67
2016-12-20T18:29:28.842Z,1015.71
2016-12-20T18:34:25.308Z,1015.67
2016-12-20T18:39:21.829Z,1015.78
2016-12-20T18:44:18.240Z,1015.89
2016-12-20T18:49:14.353Z,1016.07
2016-12-20T18:54:10.773Z,1015.98
2016-12-20T18:59:07.098Z,1015.97
2016-12-20T19:04:03.039Z,1015.88
2016-12-20T19:09:00.228Z,1015.86
2016-12-20T19:13:57.119Z,1015.93
2016-12-20T19:18:53.439Z,1016.07
2016-12-20T19:23:49.919Z,1016.16
2016-12-20T19:28:46.419Z,1016.18
2016-12-20T19:33:42.806Z,1016.23
2016-12-20T19:38:39.082Z,1016.06
2016-12-20T19:43:38.548Z,1016.01
2016-12-20T19:48:34.606Z,1016.13
2016-12-20T19:53:31.043Z,1015.97
2016-12-20T19:58:30.009Z,1016.05
2016-12-20T20:03:25.691Z,1015.97
2016-12-20T20:08:21.986Z,1015.91
2016-12-20T20:13:18.286Z,1016.01
2016-12-20T20:18:14.591Z,1015.91
2016-12-20T20:23:11.366Z,1015.92
2016-12-20T20:28:08.189Z,1016.06
2016-12-20T20:33:05.351Z,1016.01
2016-12-20T20:38:01.696Z,1015.86
2016-12-20T20:42:58.131Z,1015.95
2016-12-20T20:47:54.324Z,1015.99
2016-12-20T20:52:50.645Z,1015.82
2016-12-20T20:57:46.971Z,1015.87
2016-12-20T21:02:43.129Z,1015.97
2016-12-20T21:07:39.510Z,1016.02
2016-12-20T21:12:35.819Z,1016.09
2016-12-20T21:17:32.173Z,1016.17
2016-12-20T21:22:28.696Z,1016.20
2016-12-20T21:27:25.523Z,1016.14
2016-12-20T21:32:21.838Z,1016.12
2016-12-20T21:37:18.123Z,1016.11
2016-12-20T21:42:14.302Z,1016.18
2016-12-20T21:47:10.758Z,1016.10
2016-12-20T21:52:07.149Z,1016.12
2016-12-20T21:57:03.343Z,1016.28
2016-12-20T22:01:59.456Z,1016.40
2016-12-20T22:06:55.731Z,1016.30
2016-12-20T22:11:52.569Z,1016.37
2016-12-20T22:16:49.641Z,1016.42
2016-12-20T22:21:45.946Z,1016.23
2016-12-20T22:26:42.373Z,1016.26
2016-12-20T22:31:38.721Z,1016.39
2016-12-20T22:36:37.623Z,1016.42
2016-12-20T22:41:33.592Z,1016.48
2016-12-20T22:46:29.928Z,1016.56
2016-12-20T22:51:26.943Z,1016.49
2016-12-20T22:56:23.050Z,1016.50
2016-12-20T23:01:19.305Z,1016.54
2016-12-20T23:06:15.767Z,1016.46
2016-12-20T23:11:12.880Z,1016.43
2016-12-20T23:16:10.541Z,1016.49
2016-12-20T23:21:06.988Z,1016.39
2016-12-20T23:26:03.403Z,1016.48
2016-12-20T23:31:00.798Z,1016.45
2016-12-20T23:35:56.878Z,1016.45
2016-12-20T23:40:53.030Z,1016.48
2016-12-20T23:45:49.483Z,1016.41
2016-12-20T23:50:45.922Z,1016.44
2016-12-20T23:55:42.169Z,1016.46
